createdAt,value
2023-05-02T00:00:43.105Z,0.53
2023-05-02T00:01:42.981Z,0.54
2023-05-02T00:02:43.121Z,0.54
2023-05-02T00:03:43.065Z,0.54
2023-05-02T00:04:43.108Z,0.54
2023-05-02T00:05:43.105Z,0.53
2023-05-02T00:06:42.976Z,0.54
2023-05-02T00:07:42.920Z,0.54
2023-05-02T00:08:42.905Z,0.55
2023-05-02T00:09:42.873Z,0.55
2023-05-02T00:10:43.123Z,0.54
2023-05-02T00:11:42.908Z,0.55
2023-05-02T00:12:42.902Z,0.55
2023-05-02T00:13:42.896Z,0.54
2023-05-02T00:14:42.868Z,0.54
2023-05-02T00:15:43.127Z,0.54
2023-05-02T00:16:42.841Z,0.53
2023-05-02T00:17:42.844Z,0.54
2023-05-02T00:18:42.837Z,0.54
2023-05-02T00:19:42.799Z,0.55
2023-05-02T00:20:43.168Z,0.53
2023-05-02T00:21:42.781Z,0.53
2023-05-02T00:22:42.805Z,0.54
2023-05-02T00:23:42.815Z,0.55
2023-05-02T00:24:42.795Z,0.54
2023-05-02T00:25:43.105Z,0.54
2023-05-02T00:26:42.795Z,0.54
2023-05-02T00:27:42.749Z,0.53
2023-05-02T00:28:42.738Z,0.53
2023-05-02T00:29:42.754Z,0.53
2023-05-02T00:30:43.135Z,0.55
2023-05-02T00:31:42.942Z,0.55
2023-05-02T00:32:42.799Z,0.54
2023-05-02T00:33:42.741Z,0.55
2023-05-02T00:34:42.747Z,0.54
2023-05-02T00:35:42.720Z,0.54
2023-05-02T00:36:42.715Z,0.54
2023-05-02T00:37:42.701Z,0.53
2023-05-02T00:38:42.710Z,0.54
2023-05-02T00:39:42.722Z,0.54
2023-05-02T00:40:42.705Z,0.54
2023-05-02T00:41:42.763Z,0.53
2023-05-02T00:42:42.679Z,0.54
2023-05-02T00:43:42.761Z,0.54
2023-05-02T00:44:42.652Z,0.54
2023-05-02T00:45:42.659Z,0.54
2023-05-02T00:46:42.712Z,0.54
2023-05-02T00:47:42.649Z,0.53
2023-05-02T00:48:42.645Z,0.54
2023-05-02T00:49:42.620Z,0.54
2023-05-02T00:50:42.625Z,0.54
2023-05-02T00:51:42.583Z,0.53
2023-05-02T00:52:42.602Z,0.53
2023-05-02T00:53:42.639Z,0.53
2023-05-02T00:54:42.582Z,0.53
2023-05-02T00:55:42.588Z,0.53
2023-05-02T00:56:42.568Z,0.54
2023-05-02T00:57:42.543Z,0.54
2023-05-02T00:58:42.542Z,0.52
2023-05-02T00:59:42.565Z,0.54
2023-05-02T01:00:42.524Z,0.53
2023-05-02T01:01:42.581Z,0.54
2023-05-02T01:02:42.616Z,0.54
2023-05-02T01:03:42.617Z,0.54
2023-05-02T01:04:42.521Z,0.54
2023-05-02T01:05:42.499Z,0.53
2023-05-02T01:06:42.563Z,0.53
2023-05-02T01:07:42.479Z,0.54
2023-05-02T01:08:42.472Z,0.53
2023-05-02T01:09:42.442Z,0.53
2023-05-02T01:10:42.495Z,0.53
2023-05-02T01:11:42.499Z,0.55
2023-05-02T01:12:42.460Z,0.53
2023-05-02T01:13:42.446Z,0.53
2023-05-02T01:14:42.444Z,0.54
2023-05-02T01:15:42.483Z,0.54
2023-05-02T01:16:42.538Z,0.53
2023-05-02T01:17:42.456Z,0.54
2023-05-02T01:18:42.419Z,0.55
2023-05-02T01:19:42.450Z,0.53
2023-05-02T01:20:42.383Z,0.54
2023-05-02T01:21:42.613Z,0.54
2023-05-02T01:22:42.395Z,0.53
2023-05-02T01:23:42.382Z,0.53
2023-05-02T01:24:42.356Z,0.53
2023-05-02T01:25:42.406Z,0.53
2023-05-02T01:26:42.359Z,0.54
2023-05-02T01:27:42.357Z,0.54
2023-05-02T01:28:42.337Z,0.54
2023-05-02T01:29:42.352Z,0.54
2023-05-02T01:30:42.333Z,0.53
2023-05-02T01:31:42.336Z,0.54
2023-05-02T01:32:42.360Z,0.53
2023-05-02T01:33:42.294Z,0.53
2023-05-02T01:34:42.320Z,0.54
2023-05-02T01:35:42.301Z,0.54
2023-05-02T01:36:42.307Z,0.54
2023-05-02T01:37:42.278Z,0.54
2023-05-02T01:38:42.276Z,0.54
2023-05-02T01:39:42.291Z,0.54
2023-05-02T01:40:42.242Z,0.54
2023-05-02T01:41:42.269Z,0.54
2023-05-02T01:42:42.256Z,0.53
2023-05-02T01:43:42.233Z,0.53
2023-05-02T01:44:42.210Z,0.53
2023-05-02T01:45:42.224Z,0.54
2023-05-02T01:46:42.340Z,0.54
2023-05-02T01:47:42.269Z,0.53
2023-05-02T01:48:42.216Z,0.55
2023-05-02T01:49:42.172Z,0.54
2023-05-02T01:50:42.211Z,0.55
2023-05-02T01:51:42.183Z,0.53
2023-05-02T01:52:42.177Z,0.53
2023-05-02T01:53:42.174Z,0.54
2023-05-02T01:54:42.158Z,0.54
2023-05-02T01:55:42.152Z,0.54
2023-05-02T01:56:42.159Z,0.54
2023-05-02T01:57:42.134Z,0.55
2023-05-02T01:58:42.141Z,0.54
2023-05-02T01:59:42.187Z,0.54
2023-05-02T02:00:42.248Z,0.53
2023-05-02T02:01:42.256Z,0.54
2023-05-02T02:02:42.207Z,0.53
2023-05-02T02:03:42.200Z,0.53
2023-05-02T02:04:42.361Z,0.54
2023-05-02T02:05:42.261Z,0.53
2023-05-02T02:06:42.363Z,0.55
2023-05-02T02:07:42.278Z,0.53
2023-05-02T02:08:42.282Z,0.53
2023-05-02T02:09:42.286Z,0.54
2023-05-02T02:10:42.288Z,0.54
2023-05-02T02:11:42.304Z,0.55
2023-05-02T02:12:42.308Z,0.53
2023-05-02T02:13:42.328Z,0.54
2023-05-02T02:14:42.384Z,0.53
2023-05-02T02:15:42.380Z,0.53
2023-05-02T02:16:42.422Z,0.53
2023-05-02T02:17:42.406Z,0.53
2023-05-02T02:18:42.407Z,0.53
2023-05-02T02:19:42.407Z,0.54
2023-05-02T02:20:42.428Z,0.54
2023-05-02T02:21:42.499Z,0.54
2023-05-02T02:22:42.488Z,0.54
2023-05-02T02:23:42.447Z,0.53
2023-05-02T02:24:42.465Z,0.53
2023-05-02T02:25:42.478Z,0.53
2023-05-02T02:26:42.652Z,0.53
2023-05-02T02:27:42.476Z,0.53
2023-05-02T02:28:42.480Z,0.54
2023-05-02T02:29:43.138Z,0.53
2023-05-02T02:30:42.576Z,0.53
2023-05-02T02:31:42.643Z,0.53
2023-05-02T02:32:42.614Z,0.53
2023-05-02T02:33:42.567Z,0.54
2023-05-02T02:34:42.561Z,0.54
2023-05-02T02:35:42.597Z,0.53
2023-05-02T02:36:42.640Z,0.53
2023-05-02T02:37:42.621Z,0.54
2023-05-02T02:38:42.643Z,0.53
2023-05-02T02:39:42.634Z,0.54
2023-05-02T02:40:42.640Z,0.54
2023-05-02T02:41:42.647Z,0.54
2023-05-02T02:42:42.642Z,0.53
2023-05-02T02:43:42.674Z,0.53
2023-05-02T02:44:42.671Z,0.55
2023-05-02T02:45:42.713Z,0.54
2023-05-02T02:46:42.855Z,0.53
2023-05-02T02:47:42.756Z,0.55
2023-05-02T02:48:42.727Z,0.55
2023-05-02T02:49:42.733Z,0.53
2023-05-02T02:50:42.742Z,0.54
2023-05-02T02:51:43.141Z,0.55
2023-05-02T02:52:42.788Z,0.54
2023-05-02T02:53:42.761Z,0.53
2023-05-02T02:54:42.770Z,0.54
2023-05-02T02:55:42.758Z,0.53
2023-05-02T02:56:42.791Z,0.53
2023-05-02T02:57:42.797Z,0.52
2023-05-02T02:58:42.796Z,0.53
2023-05-02T02:59:42.812Z,0.54
2023-05-02T03:00:42.850Z,0.53
2023-05-02T03:01:42.891Z,0.54
2023-05-02T03:02:42.889Z,0.53
2023-05-02T03:03:42.885Z,0.54
2023-05-02T03:04:42.875Z,0.53
2023-05-02T03:05:42.848Z,0.53
2023-05-02T03:06:42.930Z,0.54
2023-05-02T03:07:42.953Z,0.54
2023-05-02T03:08:42.910Z,0.53
2023-05-02T03:09:42.916Z,0.53
2023-05-02T03:10:42.937Z,0.53
2023-05-02T03:11:43.173Z,0.53
2023-05-02T03:12:42.952Z,0.53
2023-05-02T03:13:42.965Z,0.53
2023-05-02T03:14:42.981Z,0.53
2023-05-02T03:15:43.031Z,0.54
2023-05-02T03:16:43.098Z,0.54
2023-05-02T03:17:43.043Z,0.54
2023-05-02T03:18:43.022Z,0.52
2023-05-02T03:19:43.041Z,0.52
2023-05-02T03:20:43.038Z,0.53
2023-05-02T03:21:43.053Z,0.53
2023-05-02T03:22:43.104Z,0.53
2023-05-02T03:23:43.124Z,0.52
2023-05-02T03:24:43.128Z,0.52
2023-05-02T03:25:43.159Z,0.53
2023-05-02T03:26:43.124Z,0.53
2023-05-02T03:27:43.157Z,0.53
2023-05-02T03:28:43.192Z,0.53
2023-05-02T03:29:43.178Z,0.52
2023-05-02T03:30:43.201Z,0.53
2023-05-02T03:31:43.234Z,0.53
2023-05-02T03:32:43.336Z,0.53
2023-05-02T03:33:43.221Z,0.54
2023-05-02T03:34:43.278Z,0.54
2023-05-02T03:35:43.304Z,0.53
2023-05-02T03:36:43.313Z,0.53
2023-05-02T03:37:43.313Z,0.52
2023-05-02T03:38:43.290Z,0.53
2023-05-02T03:39:43.325Z,0.53
2023-05-02T03:40:43.380Z,0.53
2023-05-02T03:41:43.344Z,0.53
2023-05-02T03:42:43.380Z,0.53
2023-05-02T03:43:43.356Z,0.52
2023-05-02T03:44:43.409Z,0.54
2023-05-02T03:45:43.413Z,0.53
2023-05-02T03:46:43.437Z,0.53
2023-05-02T03:47:43.458Z,0.52
2023-05-02T03:48:43.441Z,0.53
2023-05-02T03:49:43.449Z,0.52
2023-05-02T03:50:43.507Z,0.52
2023-05-02T03:51:43.481Z,0.52
2023-05-02T03:52:43.528Z,0.53
2023-05-02T03:53:43.548Z,0.53
2023-05-02T03:54:43.541Z,0.53
2023-05-02T03:55:43.541Z,0.52
2023-05-02T03:56:43.549Z,0.53
2023-05-02T03:57:43.558Z,0.53
2023-05-02T03:58:43.586Z,0.54
2023-05-02T03:59:43.624Z,0.53
2023-05-02T04:00:43.616Z,0.52
2023-05-02T04:01:43.694Z,0.53
2023-05-02T04:02:43.696Z,0.53
2023-05-02T04:03:43.727Z,0.53
2023-05-02T04:04:43.964Z,0.53
2023-05-02T04:05:43.681Z,0.53
2023-05-02T04:06:43.790Z,0.53
2023-05-02T04:07:43.717Z,0.53
2023-05-02T04:08:43.708Z,0.54
2023-05-02T04:09:43.755Z,0.51
2023-05-02T04:10:43.739Z,0.53
2023-05-02T04:11:43.765Z,0.51
2023-05-02T04:12:43.756Z,0.53
2023-05-02T04:13:43.789Z,0.52
2023-05-02T04:14:43.808Z,0.53
2023-05-02T04:15:43.846Z,0.54
2023-05-02T04:16:43.907Z,0.51
2023-05-02T04:17:43.887Z,0.53
2023-05-02T04:18:43.911Z,0.52
2023-05-02T04:19:43.893Z,0.53
2023-05-02T04:20:43.923Z,0.52
2023-05-02T04:21:44.176Z,0.52
2023-05-02T04:22:43.972Z,0.54
2023-05-02T04:23:43.962Z,0.53
2023-05-02T04:24:43.984Z,0.53
2023-05-02T04:25:43.972Z,0.53
2023-05-02T04:26:44.184Z,0.53
2023-05-02T04:27:44.039Z,0.53
2023-05-02T04:28:44.042Z,0.52
2023-05-02T04:29:44.084Z,0.53
2023-05-02T04:30:44.146Z,0.52
2023-05-02T04:31:44.103Z,0.52
2023-05-02T04:32:44.201Z,0.54
2023-05-02T04:33:44.158Z,0.52
2023-05-02T04:34:44.147Z,0.53
2023-05-02T04:35:44.190Z,0.52
2023-05-02T04:36:44.229Z,0.51
2023-05-02T04:37:44.218Z,0.51
2023-05-02T04:38:44.226Z,0.53
2023-05-02T04:39:44.255Z,0.53
2023-05-02T04:40:44.237Z,0.53
2023-05-02T04:41:44.257Z,0.54
2023-05-02T04:42:44.258Z,0.52
2023-05-02T04:43:44.278Z,0.52
2023-05-02T04:44:44.286Z,0.53
2023-05-02T04:45:44.326Z,0.51
2023-05-02T04:46:44.816Z,0.52
2023-05-02T04:47:44.354Z,0.52
2023-05-02T04:48:44.340Z,0.52
2023-05-02T04:49:44.357Z,0.53
2023-05-02T04:50:44.397Z,0.52
2023-05-02T04:51:44.376Z,0.53
2023-05-02T04:52:44.453Z,0.54
2023-05-02T04:53:44.413Z,0.53
2023-05-02T04:54:44.466Z,0.54
2023-05-02T04:55:44.461Z,0.52
2023-05-02T04:56:44.520Z,0.53
2023-05-02T04:57:44.488Z,0.53
2023-05-02T04:58:44.507Z,0.52
2023-05-02T04:59:44.529Z,0.51
2023-05-02T05:00:44.516Z,0.53
2023-05-02T05:01:44.629Z,0.53
2023-05-02T05:02:44.705Z,0.53
2023-05-02T05:03:44.726Z,0.53
2023-05-02T05:04:44.594Z,0.53
2023-05-02T05:05:44.651Z,0.52
2023-05-02T05:06:44.726Z,0.53
2023-05-02T05:07:44.633Z,0.54
2023-05-02T05:08:44.635Z,0.52
2023-05-02T05:09:44.686Z,0.52
2023-05-02T05:10:44.695Z,0.52
2023-05-02T05:11:44.685Z,0.53
2023-05-02T05:12:44.697Z,0.52
2023-05-02T05:13:44.739Z,0.53
2023-05-02T05:14:44.747Z,0.52
2023-05-02T05:15:44.927Z,0.53
2023-05-02T05:16:44.824Z,0.53
2023-05-02T05:17:44.871Z,0.52
2023-05-02T05:18:44.790Z,0.53
2023-05-02T05:19:44.781Z,0.52
2023-05-02T05:20:44.823Z,0.52
2023-05-02T05:21:44.797Z,0.51
2023-05-02T05:22:44.896Z,0.53
2023-05-02T05:23:44.870Z,0.52
2023-05-02T05:24:44.841Z,0.54
2023-05-02T05:25:45.867Z,0.52
2023-05-02T05:26:44.890Z,0.52
2023-05-02T05:27:44.893Z,0.52
2023-05-02T05:28:44.912Z,0.52
2023-05-02T05:29:44.913Z,0.52
2023-05-02T05:30:44.906Z,0.52
2023-05-02T05:31:45.008Z,0.53
2023-05-02T05:32:45.000Z,0.53
2023-05-02T05:33:45.055Z,0.52
2023-05-02T05:34:44.950Z,0.52
2023-05-02T05:35:44.945Z,0.52
2023-05-02T05:36:44.967Z,0.52
2023-05-02T05:37:44.999Z,0.52
2023-05-02T05:38:44.984Z,0.52
2023-05-02T05:39:44.991Z,0.52
2023-05-02T05:40:44.979Z,0.51
2023-05-02T05:41:45.010Z,0.53
2023-05-02T05:42:45.022Z,0.53
2023-05-02T05:43:45.056Z,0.52
2023-05-02T05:44:45.062Z,0.53
2023-05-02T05:45:45.073Z,0.52
2023-05-02T05:46:45.130Z,0.52
2023-05-02T05:47:45.146Z,0.51
2023-05-02T05:48:45.087Z,0.54
2023-05-02T05:49:45.164Z,0.52
2023-05-02T05:50:45.158Z,0.52
2023-05-02T05:51:45.162Z,0.52
2023-05-02T05:52:45.182Z,0.52
2023-05-02T05:53:45.214Z,0.52
2023-05-02T05:54:45.221Z,0.52
2023-05-02T05:55:45.216Z,0.52
2023-05-02T05:56:45.219Z,0.53
2023-05-02T05:57:45.682Z,0.52
2023-05-02T05:58:45.284Z,0.53
2023-05-02T05:59:45.290Z,0.52
2023-05-02T06:00:45.304Z,0.52
2023-05-02T06:01:45.332Z,0.53
2023-05-02T06:02:45.478Z,0.53
2023-05-02T06:03:45.523Z,0.52
2023-05-02T06:04:45.463Z,0.52
2023-05-02T06:05:45.389Z,0.52
2023-05-02T06:06:45.503Z,0.52
2023-05-02T06:07:45.484Z,0.54
2023-05-02T06:08:45.437Z,0.52
2023-05-02T06:09:45.492Z,0.53
2023-05-02T06:10:45.508Z,0.52
2023-05-02T06:11:45.503Z,0.52
2023-05-02T06:12:46.618Z,0.52
2023-05-02T06:13:45.518Z,0.52
2023-05-02T06:14:45.552Z,0.52
2023-05-02T06:15:45.589Z,0.53
2023-05-02T06:16:45.565Z,0.52
2023-05-02T06:17:45.751Z,0.54
2023-05-02T06:18:45.617Z,0.52
2023-05-02T06:19:45.784Z,0.54
2023-05-02T06:20:45.717Z,0.53
2023-05-02T06:21:45.682Z,0.53
2023-05-02T06:22:45.698Z,0.52
2023-05-02T06:23:45.693Z,0.53
2023-05-02T06:24:45.704Z,0.53
2023-05-02T06:25:45.734Z,0.53
2023-05-02T06:26:45.790Z,0.54
2023-05-02T06:27:45.769Z,0.53
2023-05-02T06:28:45.788Z,0.52
2023-05-02T06:29:45.786Z,0.53
2023-05-02T06:30:45.765Z,0.52
2023-05-02T06:31:45.826Z,0.53
2023-05-02T06:32:45.863Z,0.54
2023-05-02T06:33:45.804Z,0.52
2023-05-02T06:34:45.845Z,0.53
2023-05-02T06:35:45.859Z,0.54
2023-05-02T06:36:45.847Z,0.53
2023-05-02T06:37:45.868Z,0.53
2023-05-02T06:38:45.868Z,0.53
2023-05-02T06:39:45.917Z,0.53
2023-05-02T06:40:45.918Z,0.53
2023-05-02T06:41:45.895Z,0.53
2023-05-02T06:42:45.897Z,0.54
2023-05-02T06:43:45.913Z,0.53
2023-05-02T06:44:45.945Z,0.54
2023-05-02T06:45:45.976Z,0.53
2023-05-02T06:46:45.973Z,0.54
2023-05-02T06:47:46.027Z,0.53
2023-05-02T06:48:45.969Z,0.53
2023-05-02T06:49:45.970Z,0.53
2023-05-02T06:50:46.024Z,0.54
2023-05-02T06:51:46.057Z,0.53
2023-05-02T06:52:46.029Z,0.53
2023-05-02T06:53:46.035Z,0.54
2023-05-02T06:54:46.057Z,0.53
2023-05-02T06:55:46.063Z,0.54
2023-05-02T06:56:46.091Z,0.54
2023-05-02T06:57:46.143Z,0.54
2023-05-02T06:58:46.088Z,0.53
2023-05-02T06:59:46.111Z,0.54
2023-05-02T07:00:46.162Z,0.54
2023-05-02T07:01:46.141Z,0.53
2023-05-02T07:02:46.189Z,0.53
2023-05-02T07:03:46.123Z,0.53
2023-05-02T07:04:46.286Z,0.52
2023-05-02T07:05:46.154Z,0.53
2023-05-02T07:06:46.262Z,0.54
2023-05-02T07:07:46.173Z,0.52
2023-05-02T07:08:46.185Z,0.53
2023-05-02T07:09:46.188Z,0.53
2023-05-02T07:10:46.180Z,0.53
2023-05-02T07:11:46.183Z,0.53
2023-05-02T07:12:46.198Z,0.52
2023-05-02T07:13:46.225Z,0.54
2023-05-02T07:14:46.223Z,0.54
2023-05-02T07:15:46.213Z,0.54
2023-05-02T07:16:46.251Z,0.53
2023-05-02T07:17:46.257Z,0.53
2023-05-02T07:18:46.254Z,0.54
2023-05-02T07:19:46.225Z,0.53
2023-05-02T07:20:46.241Z,0.54
2023-05-02T07:21:46.226Z,0.54
2023-05-02T07:22:46.276Z,0.53
2023-05-02T07:23:46.291Z,0.54
2023-05-02T07:24:46.262Z,0.55
2023-05-02T07:25:46.282Z,0.53
2023-05-02T07:26:46.316Z,0.54
2023-05-02T07:27:46.320Z,0.53
2023-05-02T07:28:46.297Z,0.53
2023-05-02T07:29:46.321Z,0.53
2023-05-02T07:30:46.290Z,0.54
2023-05-02T07:31:46.342Z,0.52
2023-05-02T07:32:46.377Z,0.54
2023-05-02T07:33:46.321Z,0.54
2023-05-02T07:34:46.335Z,0.53
2023-05-02T07:35:46.343Z,0.54
2023-05-02T07:36:46.377Z,0.52
2023-05-02T07:37:46.400Z,0.53
2023-05-02T07:38:46.357Z,0.54
2023-05-02T07:39:46.358Z,0.53
2023-05-02T07:40:46.389Z,0.54
2023-05-02T07:41:46.400Z,0.53
2023-05-02T07:42:46.413Z,0.55
2023-05-02T07:43:46.404Z,0.53
2023-05-02T07:44:46.442Z,0.53
2023-05-02T07:45:46.458Z,0.54
2023-05-02T07:46:46.515Z,0.53
2023-05-02T07:47:46.527Z,0.54
2023-05-02T07:48:46.471Z,0.53
2023-05-02T07:49:46.492Z,0.53
2023-05-02T07:50:46.499Z,0.58
2023-05-02T07:51:46.497Z,0.63
2023-05-02T07:52:46.528Z,0.68
2023-05-02T07:53:46.487Z,0.69
2023-05-02T07:54:46.543Z,0.74
2023-05-02T07:55:46.500Z,0.78
2023-05-02T07:56:46.492Z,0.83
2023-05-02T07:57:46.507Z,0.87
2023-05-02T07:58:46.495Z,0.96
2023-05-02T07:59:46.577Z,1.07
2023-05-02T08:00:46.618Z,1.15
2023-05-02T08:01:46.701Z,1.22
2023-05-02T08:02:46.793Z,1.22
2023-05-02T08:03:47.000Z,1.30
2023-05-02T08:04:46.882Z,1.32
2023-05-02T08:05:46.905Z,1.38
2023-05-02T08:06:47.013Z,1.43
2023-05-02T08:07:46.992Z,1.50
2023-05-02T08:08:47.003Z,1.50
2023-05-02T08:09:47.052Z,1.56
2023-05-02T08:10:47.093Z,1.67
2023-05-02T08:11:47.159Z,1.71
2023-05-02T08:12:47.142Z,1.73
2023-05-02T08:13:47.144Z,1.80
2023-05-02T08:14:47.188Z,1.82
2023-05-02T08:15:47.324Z,1.86
2023-05-02T08:16:47.332Z,1.90
2023-05-02T08:17:47.347Z,1.98
2023-05-02T08:18:47.299Z,2.01
2023-05-02T08:19:47.304Z,2.06
2023-05-02T08:20:47.449Z,2.18
2023-05-02T08:21:47.395Z,2.22
2023-05-02T08:22:47.374Z,2.23
2023-05-02T08:23:47.420Z,2.27
2023-05-02T08:24:47.397Z,2.35
2023-05-02T08:25:47.432Z,2.44
2023-05-02T08:26:47.448Z,2.50
2023-05-02T08:27:47.448Z,2.54
2023-05-02T08:28:47.431Z,2.58
2023-05-02T08:29:47.444Z,2.63
2023-05-02T08:30:47.462Z,2.71
2023-05-02T08:31:47.437Z,2.71
2023-05-02T08:32:47.811Z,2.76
2023-05-02T08:33:47.437Z,2.88
2023-05-02T08:34:47.443Z,2.84
2023-05-02T08:35:47.454Z,2.94
2023-05-02T08:36:47.460Z,2.92
2023-05-02T08:37:47.449Z,3.00
2023-05-02T08:38:47.443Z,3.07
2023-05-02T08:39:47.502Z,3.11
2023-05-02T08:40:47.521Z,3.19
2023-05-02T08:41:47.515Z,3.18
2023-05-02T08:42:47.552Z,3.25
2023-05-02T08:43:47.571Z,3.38
2023-05-02T08:44:47.553Z,3.47
2023-05-02T08:45:47.571Z,3.40
2023-05-02T08:46:47.614Z,3.44
2023-05-02T08:47:47.593Z,3.42
2023-05-02T08:48:47.526Z,3.25
2023-05-02T08:49:47.539Z,3.15
2023-05-02T08:50:47.549Z,3.18
2023-05-02T08:51:47.533Z,3.05
2023-05-02T08:52:47.562Z,2.91
2023-05-02T08:53:47.555Z,3.04
2023-05-02T08:54:47.551Z,2.91
2023-05-02T08:55:47.553Z,2.85
2023-05-02T08:56:47.607Z,2.92
2023-05-02T08:57:47.644Z,2.95
2023-05-02T08:58:47.579Z,2.86
2023-05-02T08:59:47.586Z,2.86
2023-05-02T09:00:47.637Z,2.88
2023-05-02T09:01:47.664Z,2.91
2023-05-02T09:02:48.279Z,2.84
2023-05-02T09:03:47.683Z,2.62
2023-05-02T09:04:47.594Z,2.26
2023-05-02T09:05:47.582Z,2.02
2023-05-02T09:06:47.665Z,2.14
2023-05-02T09:07:47.642Z,1.59
2023-05-02T09:08:47.670Z,1.93
2023-05-02T09:09:47.717Z,2.07
2023-05-02T09:10:47.733Z,2.08
2023-05-02T09:11:48.779Z,1.94
2023-05-02T09:12:47.804Z,1.66
2023-05-02T09:13:47.816Z,1.80
2023-05-02T09:14:47.862Z,1.76
2023-05-02T09:15:47.932Z,1.81
2023-05-02T09:16:48.015Z,1.82
2023-05-02T09:17:47.940Z,1.78
2023-05-02T09:18:47.947Z,1.74
2023-05-02T09:19:47.991Z,1.73
2023-05-02T09:20:47.993Z,1.72
2023-05-02T09:21:48.019Z,1.67
2023-05-02T09:22:48.253Z,1.66
2023-05-02T09:23:48.059Z,1.57
2023-05-02T09:24:48.068Z,1.42
2023-05-02T09:25:48.108Z,1.46
2023-05-02T09:26:48.134Z,1.60
2023-05-02T09:27:48.280Z,1.65
2023-05-02T09:28:48.163Z,1.70
2023-05-02T09:29:48.162Z,1.72
2023-05-02T09:30:48.210Z,1.73
2023-05-02T09:31:55.522Z,1.70
2023-05-02T09:32:49.222Z,1.52
2023-05-02T09:33:48.209Z,1.64
2023-05-02T09:34:48.166Z,1.59
2023-05-02T09:35:48.150Z,1.51
2023-05-02T09:36:48.139Z,1.36
2023-05-02T09:37:48.251Z,1.37
2023-05-02T09:38:48.138Z,1.04
2023-05-02T09:39:48.141Z,1.33
2023-05-02T09:40:48.136Z,1.39
2023-05-02T09:41:48.103Z,1.42
2023-05-02T09:42:48.124Z,0.84
2023-05-02T09:43:48.126Z,0.95
2023-05-02T09:44:48.121Z,1.11
2023-05-02T09:45:48.225Z,1.16
2023-05-02T09:46:48.082Z,1.33
2023-05-02T09:47:48.125Z,1.27
2023-05-02T09:48:48.108Z,1.12
2023-05-02T09:49:48.128Z,1.28
2023-05-02T09:50:48.071Z,1.44
2023-05-02T09:51:48.151Z,1.56
2023-05-02T09:52:48.135Z,1.76
2023-05-02T09:53:48.263Z,1.86
2023-05-02T09:54:48.163Z,1.94
2023-05-02T09:55:48.144Z,2.02
2023-05-02T09:56:48.149Z,2.15
2023-05-02T09:57:48.168Z,2.23
2023-05-02T09:58:48.287Z,2.24
2023-05-02T09:59:48.190Z,2.28
2023-05-02T10:00:48.249Z,2.28
2023-05-02T10:01:48.405Z,2.26
2023-05-02T10:02:48.366Z,2.31
2023-05-02T10:03:48.873Z,2.30
2023-05-02T10:04:48.461Z,2.31
2023-05-02T10:05:48.526Z,2.32
2023-05-02T10:06:48.724Z,2.29
2023-05-02T10:07:48.644Z,2.25
2023-05-02T10:08:48.786Z,2.28
2023-05-02T10:09:48.795Z,2.29
2023-05-02T10:10:48.830Z,2.23
2023-05-02T10:11:48.912Z,2.27
2023-05-02T10:12:48.961Z,2.24
2023-05-02T10:13:49.250Z,2.24
2023-05-02T10:14:49.072Z,2.18
2023-05-02T10:15:49.249Z,2.26
2023-05-02T10:16:49.174Z,2.25
2023-05-02T10:17:49.293Z,2.27
2023-05-02T10:18:49.265Z,2.30
2023-05-02T10:19:49.292Z,2.34
2023-05-02T10:20:49.363Z,2.35
2023-05-02T10:21:49.418Z,2.38
2023-05-02T10:22:49.467Z,2.40
2023-05-02T10:23:49.490Z,2.44
2023-05-02T10:24:49.571Z,2.45
2023-05-02T10:25:49.601Z,2.52
2023-05-02T10:26:49.667Z,2.46
2023-05-02T10:27:49.655Z,2.45
2023-05-02T10:28:49.733Z,2.49
2023-05-02T10:29:49.699Z,2.48
2023-05-02T10:30:49.761Z,2.51
2023-05-02T10:31:49.852Z,2.51
2023-05-02T10:32:49.817Z,2.53
2023-05-02T10:33:49.856Z,2.49
2023-05-02T10:34:49.892Z,2.58
2023-05-02T10:35:49.883Z,2.66
2023-05-02T10:36:49.937Z,2.63
2023-05-02T10:37:49.939Z,2.63
2023-05-02T10:38:49.972Z,2.56
2023-05-02T10:39:50.003Z,2.59
2023-05-02T10:40:50.559Z,2.50
2023-05-02T10:41:50.048Z,2.54
2023-05-02T10:42:50.074Z,2.56
2023-05-02T10:43:50.080Z,2.58
2023-05-02T10:44:50.105Z,2.31
2023-05-02T10:45:50.121Z,2.49
2023-05-02T10:46:50.260Z,2.50
2023-05-02T10:47:50.216Z,2.54
2023-05-02T10:48:50.170Z,2.72
2023-05-02T10:49:50.130Z,2.84
2023-05-02T10:50:50.129Z,2.92
2023-05-02T10:51:50.139Z,2.96
2023-05-02T10:52:50.095Z,3.05
2023-05-02T10:53:50.121Z,2.97
2023-05-02T10:54:50.097Z,3.17
2023-05-02T10:55:50.079Z,3.33
2023-05-02T10:56:50.102Z,3.42
2023-05-02T10:57:50.072Z,3.54
2023-05-02T10:58:50.091Z,3.54
2023-05-02T10:59:50.034Z,3.50
2023-05-02T11:00:50.119Z,3.47
2023-05-02T11:01:50.072Z,3.59
2023-05-02T11:02:50.104Z,3.51
2023-05-02T11:03:50.297Z,3.15
2023-05-02T11:04:50.017Z,3.43
2023-05-02T11:05:50.004Z,3.47
2023-05-02T11:06:50.089Z,3.57
2023-05-02T11:07:50.002Z,3.53
2023-05-02T11:08:50.292Z,3.54
2023-05-02T11:09:49.983Z,3.92
2023-05-02T11:10:50.001Z,3.78
2023-05-02T11:11:49.981Z,4.01
2023-05-02T11:12:49.994Z,4.10
2023-05-02T11:13:50.002Z,4.23
2023-05-02T11:14:50.005Z,4.42
2023-05-02T11:15:50.002Z,4.20
2023-05-02T11:16:50.006Z,4.56
2023-05-02T11:17:49.978Z,4.79
2023-05-02T11:18:50.308Z,4.65
2023-05-02T11:19:49.934Z,4.87
2023-05-02T11:20:49.926Z,4.83
2023-05-02T11:21:49.890Z,5.11
2023-05-02T11:22:49.926Z,4.95
2023-05-02T11:23:49.926Z,5.02
2023-05-02T11:24:49.916Z,5.36
2023-05-02T11:25:49.909Z,5.50
2023-05-02T11:26:49.878Z,5.55
2023-05-02T11:27:49.885Z,5.59
2023-05-02T11:28:49.898Z,5.28
2023-05-02T11:29:49.859Z,5.76
2023-05-02T11:30:49.864Z,6.09
2023-05-02T11:31:49.846Z,6.28
2023-05-02T11:32:49.936Z,6.32
2023-05-02T11:33:49.837Z,6.33
2023-05-02T11:34:49.820Z,6.41
2023-05-02T11:35:49.838Z,6.54
2023-05-02T11:36:49.805Z,6.87
2023-05-02T11:37:49.860Z,7.10
2023-05-02T11:38:49.898Z,7.00
2023-05-02T11:39:49.945Z,6.68
2023-05-02T11:40:50.037Z,6.45
2023-05-02T11:41:50.083Z,5.23
2023-05-02T11:42:50.093Z,5.50
2023-05-02T11:43:50.326Z,5.24
2023-05-02T11:44:50.138Z,5.00
2023-05-02T11:45:50.153Z,4.12
2023-05-02T11:46:50.219Z,3.81
2023-05-02T11:47:50.196Z,3.45
2023-05-02T11:48:50.327Z,3.57
2023-05-02T11:49:50.171Z,3.59
2023-05-02T11:50:50.827Z,3.55
2023-05-02T11:51:50.230Z,3.42
2023-05-02T11:52:50.264Z,3.69
2023-05-02T11:53:50.301Z,7.18
2023-05-02T11:54:50.350Z,32.78
2023-05-02T11:55:50.336Z,38.57
2023-05-02T11:56:50.430Z,31.29
2023-05-02T11:57:50.429Z,20.02
2023-05-02T11:58:50.517Z,18.53
2023-05-02T11:59:50.564Z,12.05
2023-05-02T12:00:50.576Z,11.59
2023-05-02T12:01:50.631Z,6.76
2023-05-02T12:02:50.794Z,9.39
2023-05-02T12:03:50.829Z,10.02
2023-05-02T12:04:50.825Z,9.40
2023-05-02T12:05:50.919Z,9.36
2023-05-02T12:06:50.943Z,8.72
2023-05-02T12:07:50.962Z,6.69
2023-05-02T12:08:50.989Z,7.11
2023-05-02T12:09:51.000Z,6.36
2023-05-02T12:10:50.976Z,4.68
2023-05-02T12:11:51.006Z,4.49
2023-05-02T12:12:50.986Z,3.58
2023-05-02T12:13:51.033Z,2.34
2023-05-02T12:14:51.031Z,2.16
2023-05-02T12:15:51.126Z,1.93
2023-05-02T12:16:51.078Z,2.18
2023-05-02T12:17:51.134Z,2.86
2023-05-02T12:18:51.128Z,3.23
2023-05-02T12:19:51.157Z,2.41
2023-05-02T12:20:51.215Z,2.44
2023-05-02T12:21:51.200Z,2.00
2023-05-02T12:22:51.256Z,2.37
2023-05-02T12:23:51.302Z,2.44
2023-05-02T12:24:51.339Z,1.84
2023-05-02T12:25:51.360Z,1.96
2023-05-02T12:26:52.418Z,2.32
2023-05-02T12:27:51.423Z,2.40
2023-05-02T12:28:51.575Z,2.29
2023-05-02T12:29:51.518Z,2.39
2023-05-02T12:30:51.526Z,2.42
2023-05-02T12:31:51.579Z,2.06
2023-05-02T12:32:51.630Z,2.46
2023-05-02T12:33:51.606Z,1.63
2023-05-02T12:34:51.640Z,2.20
2023-05-02T12:35:51.712Z,1.85
2023-05-02T12:36:51.741Z,2.19
2023-05-02T12:37:51.777Z,1.69
2023-05-02T12:38:51.804Z,1.59
2023-05-02T12:39:51.835Z,1.53
2023-05-02T12:40:51.853Z,1.80
2023-05-02T12:41:51.911Z,1.51
2023-05-02T12:42:51.944Z,1.27
2023-05-02T12:43:51.984Z,1.48
2023-05-02T12:44:52.027Z,1.02
2023-05-02T12:45:52.066Z,1.23
2023-05-02T12:46:52.114Z,1.24
2023-05-02T12:47:52.165Z,1.43
2023-05-02T12:48:52.138Z,1.32
2023-05-02T12:49:52.188Z,1.21
2023-05-02T12:50:52.257Z,1.12
2023-05-02T12:51:52.265Z,0.70
2023-05-02T12:52:52.290Z,1.01
2023-05-02T12:53:52.390Z,1.04
2023-05-02T12:54:52.444Z,1.13
2023-05-02T12:55:52.456Z,1.36
2023-05-02T12:56:52.515Z,1.13
2023-05-02T12:57:52.561Z,0.98
2023-05-02T12:58:52.590Z,0.80
2023-05-02T12:59:52.637Z,0.98
2023-05-02T13:00:52.738Z,0.95
2023-05-02T13:01:59.710Z,0.76
2023-05-02T13:02:52.800Z,0.77
2023-05-02T13:03:52.912Z,0.78
2023-05-02T13:04:52.679Z,0.79
2023-05-02T13:05:52.692Z,0.75
2023-05-02T13:06:52.765Z,0.74
2023-05-02T13:07:52.674Z,0.51
2023-05-02T13:08:52.855Z,0.70
2023-05-02T13:09:52.656Z,0.61
2023-05-02T13:10:52.665Z,0.61
2023-05-02T13:11:52.618Z,0.62
2023-05-02T13:12:52.666Z,0.65
2023-05-02T13:13:52.649Z,0.60
2023-05-02T13:14:52.679Z,0.52
2023-05-02T13:15:52.651Z,0.51
2023-05-02T13:16:52.691Z,0.60
2023-05-02T13:17:52.743Z,0.46
2023-05-02T13:18:52.590Z,0.54